Voyager — C6WC2 — position and weather

sailwx.info

Track history (hours):
 
Tides and Currents Weather Stations Pressure Air Temp Water Temp Dewpoint Dewpoint Depression Visibility Wind Speed Wind Dir Waves Ship Positions

Voyager

Last reported at 2014-Oct-28 13:30 UTC. Time now 2014-Oct-30 23:53 UTC.
Position N 34°23' E 033°02'.

Length 151 m; draft 6 m.

Type: Passenger vessel. MMSI: 309695000.

Date/timePositionNaut miles runAvg speedWind from/ knotsBaromVisibWave heightAir tempDewpointWater temp
2014-Oct-28 13:30N 34°23' E 033°02'1515.7
2014-Oct-28 12:34N 34°37' E 033°04'3 3.1
2014-Oct-28 11:33N 34°39' E 033°01'0 0.0
2014-Oct-28 10:33N 34°39' E 033°01'0 0.0
2014-Oct-28 09:33N 34°39' E 033°01'0 0.0
2014-Oct-28 08:33N 34°39' E 033°01'0 0.0
2014-Oct-28 07:33N 34°39' E 033°01'0 0.0
2014-Oct-28 06:33N 34°39' E 033°01'0 0.0
2014-Oct-28 05:33N 34°39' E 033°01'0 0.4
2014-Oct-28 04:33N 34°39' E 033°01'9 9.4
2014-Oct-28 03:34N 34°30' E 033°04'1615.7
2014-Oct-28 02:33N 34°30' E 032°45'337 7.1
2014-Oct-26 03:19N 37°03' E 026°35'912.3
2014-Oct-26 02:33N 37°11' E 026°29'1212.2
2014-Oct-26 01:33N 37°22' E 026°22'1211.5
2014-Oct-26 00:33N 37°33' E 026°19'  
2014-Oct-23 15:07N 40°54' E 028°50'814.2
2014-Oct-23 14:33N 40°59' E 028°59'3 0.1
2014-Oct-22 12:17N 41°01' E 028°59'0 0.0
2014-Oct-22 06:29N 41°01' E 028°59'0 0.0
2014-Oct-21 23:23N 41°01' E 028°59'0 0.0
2014-Oct-21 18:23N 41°01' E 028°59'0 0.0
2014-Oct-21 17:29N 41°01' E 028°59'0 0.0
2014-Oct-21 16:17N 41°01' E 028°59'0 0.0
2014-Oct-21 14:11N 41°01' E 028°59'0 0.0
2014-Oct-21 03:32N 41°01' E 028°59'8 7.2
2014-Oct-21 02:25N 41°09' E 029°04'17 8.5
2014-Oct-21 00:25N 41°26' E 029°02'  
Track history (hours):
 
Tides and Currents Weather Stations Pressure Air Temp Water Temp Dewpoint Dewpoint Depression Visibility Wind Speed Wind Dir Waves Ship Positions

Voyager

Last reported at 2014-Oct-28 13:30 UTC. Time now 2014-Oct-30 23:53 UTC.
Position N 34°23' E 033°02'.

Length 151 m; draft 6 m.

Type: Passenger vessel. MMSI: 309695000.

Date/timePositionNaut miles runAvg speedWind from/ knotsBaromVisibWave heightAir tempDewpointWater temp
2014-Oct-28 13:30N 34°23' E 033°02'1515.7
2014-Oct-28 12:34N 34°37' E 033°04'3 3.1
2014-Oct-28 11:33N 34°39' E 033°01'0 0.0
2014-Oct-28 10:33N 34°39' E 033°01'0 0.0
2014-Oct-28 09:33N 34°39' E 033°01'0 0.0
2014-Oct-28 08:33N 34°39' E 033°01'0 0.0
2014-Oct-28 07:33N 34°39' E 033°01'0 0.0
2014-Oct-28 06:33N 34°39' E 033°01'0 0.0
2014-Oct-28 05:33N 34°39' E 033°01'0 0.4
2014-Oct-28 04:33N 34°39' E 033°01'9 9.4
2014-Oct-28 03:34N 34°30' E 033°04'1615.7
2014-Oct-28 02:33N 34°30' E 032°45'337 7.1
2014-Oct-26 03:19N 37°03' E 026°35'912.3
2014-Oct-26 02:33N 37°11' E 026°29'1212.2
2014-Oct-26 01:33N 37°22' E 026°22'1211.5
2014-Oct-26 00:33N 37°33' E 026°19'  
2014-Oct-23 15:07N 40°54' E 028°50'814.2
2014-Oct-23 14:33N 40°59' E 028°59'3 0.1
2014-Oct-22 12:17N 41°01' E 028°59'0 0.0
2014-Oct-22 06:29N 41°01' E 028°59'0 0.0
2014-Oct-21 23:23N 41°01' E 028°59'0 0.0
2014-Oct-21 18:23N 41°01' E 028°59'0 0.0
2014-Oct-21 17:29N 41°01' E 028°59'0 0.0
2014-Oct-21 16:17N 41°01' E 028°59'0 0.0
2014-Oct-21 14:11N 41°01' E 028°59'0 0.0
2014-Oct-21 03:32N 41°01' E 028°59'8 7.2
2014-Oct-21 02:25N 41°09' E 029°04'17 8.5
2014-Oct-21 00:25N 41°26' E 029°02'  

Dump ship's entire track history